Strona główna
METAR-TAF:

METAR-TAF

Lotnisko :

Port lotniczy Akra

Akra, Ghana

Szerokość geograficzna: 05-36N, Długość geograficzna: 000-10W, wysokość: 68 m

Aktualna obserwacja pogody

Raport powstał 15 minut temu, godzina 04:00 UTC
Wiatr 8 kt od zachód
Temperatura 27°C
Wilgotność 89%
Ciśnienie 1012 hPa
Widzialność 10 km lub więcej
Brak chmur poniżej 1500 m i brak chmur cumulonimbus

METAR: DGAA 150400Z 26008KT CAVOK 27/25 Q1012 NOSIG

czas: 04:15 (04:15 UTC)

Prognoza

Raport powstał 5 godziny i 15 minut temu, godzina 23:00 UTC
Prognoza ważna od 15 godzina 00 UTC do 16 godzina 06 UTC
Wiatr 10 kt od zachód
Widzialność 10 km lub więcej
Mało chmury na wysokości 1200 ft
Przejściowo
od 15 godzina 06 UTC do 15 godzina 09 UTC
Widzialność: 7000 m
Stopniowe zmiany
od 15 godzina 10 UTC do 15 godzina 12 UTC
Wiatr 15 kt od południe
Rozproszone chmury na wysokości 1800 ft

TAF: DGAA 142300Z 1500/1606 27010KT 9999 FEW012 TEMPO 1506/1509 7000 BECMG 1510/1512 19015KT SCT018

Obserwacja i prognoza pogody dla ponad 4000 lotnisk (raport METAR i TAF).

Dostępne stacje oznaczono żółtymi i czerwonymi punktami na mapie.

Najedź kursorem aby zobaczyć nazwę stacji.

Kliknij aby zobaczyć obserwacje i prognozy pogody.

Aby zmienić mapę: kliknij na zielony przycisk z czarnym krzyżykiem, aby powiększyć; na zielony przycisk z myślnikiem, aby pomniejszyć; na zielone strzałki, aby przejść do map sąsiednich.


METAR-TAF: